Lantana, FL (33462)

1:46 AM EST on November 26, 2014 (GMT -0500)
Island Estates | Change Station
CLOSE
Current Station
Personal Weather Station
Location: Lantana, FL
Elevation: 45 ft
Nearby Weather Stations

Elev 45 ft 26.57 °N, 80.08 °W | Updated 1 minute ago

Overcast
Overcast
79.8 °F
Feels Like 85 °F
N
6.0
Wind Variable Wind from SSE
Gusts 8.0 mph

Today
High -- | Low -- °F
--% Chance of Precip.
Yesterday
High -- | Low -- °F
Precip. -- in
6:47 AM 5:27 PM
Waxing Crescent, 17% visible
Pressure 29.91 in
Visibility 10.0 miles
Clouds Few 1500 ft
Mostly Cloudy 4100 ft
Overcast 10000 ft
Heat Index 85 °F
Dew Point 76 °F
Humidity 89%
Rainfall 0.00 in
Snow Depth Not available.
UV 0 out of 12
Pollen 2.40 out of 12
Air Quality Not available.
Flu Activity Not available.
SPECI KPBI 260636Z 18011KT 10SM FEW015 BKN041 OVC100 27/24 A2991 RMK AO2 T02670239

More Conditions Fewer Conditions

Pressure 29.91 in
Visibility 10.0 miles
Clouds Few 1500 ft
Mostly Cloudy 4100 ft
Overcast 10000 ft
Heat Index 85 °F
Dew Point 76 °F
Humidity 89%
Rainfall 0.00 in
Snow Depth Not available.
UV 0 out of 12
Pollen 2.40 out of 12
Air Quality Not available.
Flu Activity Not available.
SPECI KPBI 260636Z 18011KT 10SM FEW015 BKN041 OVC100 27/24 A2991 RMK AO2 T02670239

More Conditions Fewer Conditions

Nowcast | as of 1:19 am EST on November 26, 2014

A few showers will develop across Southeast Florida and the adjacent waters...focused along and just off the Miami-Dade and Broward coast. Brief heavy downpours and gusty winds to around 30 mph will accompany the showers as they move quickly off to the northeast.

×

10-Day Weather Forecast

Almanac

Astronomy

Nov. 26, 2014 Rise Set
Actual Time
Civil Twilight
Nautical Twilight
Astronomical Twilight
Moon
Length of Visible Light
Length of Day
Tomorrow will be .
, % of the Moon is Illuminated

Today's Extremes

State Highs State Lows

Community

WunderPhotos

Upload Photos

1,773,691 photos uploaded!

WunderBlogs® & News

Nearby

Air Quality

  Air Quality AQ Index Pollutant
Not available.

Snow Depth

Station Depth Elevation

Earthquake Activity

City Distance Mag. Time & Date
Minimum magnitude displayed is 2.5.

Coastal Water Temperatures

Place Temperature

Nearby Weather Stations